createdAt,value
2019-04-05T00:00:43.693Z,27.60
2019-04-05T00:01:45.908Z,27.60
2019-04-05T00:02:48.198Z,26.00
2019-04-05T00:03:50.664Z,27.20
2019-04-05T00:04:52.980Z,27.00
2019-04-05T00:05:55.359Z,27.00
2019-04-05T00:06:57.965Z,27.00
2019-04-05T00:08:00.353Z,26.40
2019-04-05T00:09:05.295Z,28.00
2019-04-05T00:10:08.220Z,27.00
2019-04-05T00:11:11.393Z,26.00
2019-04-05T00:12:13.530Z,28.20
2019-04-05T00:13:15.530Z,27.00
2019-04-05T00:14:17.638Z,29.00
2019-04-05T00:15:20.322Z,25.60
2019-04-05T00:16:22.083Z,25.80
2019-04-05T00:17:24.253Z,26.40
2019-04-05T00:18:26.357Z,27.00
2019-04-05T00:19:28.487Z,25.80
2019-04-05T00:20:30.594Z,25.00
2019-04-05T00:21:32.795Z,27.20
2019-04-05T00:22:35.097Z,27.40
2019-04-05T00:23:37.516Z,27.00
2019-04-05T00:24:39.884Z,26.80
2019-04-05T00:25:43.128Z,28.00
2019-04-05T00:26:45.485Z,29.00
2019-04-05T00:27:47.519Z,28.00
2019-04-05T00:28:51.729Z,27.40
2019-04-05T00:29:53.794Z,28.60
2019-04-05T00:30:56.122Z,26.60
2019-04-05T00:31:58.205Z,27.40
2019-04-05T00:33:00.257Z,28.00
2019-04-05T00:34:04.169Z,26.80
2019-04-05T00:35:06.819Z,27.60
2019-04-05T00:36:09.111Z,28.20
2019-04-05T00:37:11.697Z,26.80
2019-04-05T00:38:14.137Z,27.00
2019-04-05T00:39:16.436Z,27.60
2019-04-05T00:40:18.456Z,28.40
2019-04-05T00:41:21.118Z,27.00
2019-04-05T00:42:23.569Z,27.80
2019-04-05T00:43:25.875Z,25.00
2019-04-05T00:44:27.973Z,28.20
2019-04-05T00:45:30.299Z,26.40
2019-04-05T00:46:32.551Z,25.80
2019-04-05T00:47:35.600Z,27.60
2019-04-05T00:48:37.679Z,26.80
2019-04-05T00:49:40.058Z,28.20
2019-04-05T00:50:42.158Z,27.00
2019-04-05T00:51:44.421Z,27.00
2019-04-05T00:52:46.747Z,25.00
2019-04-05T00:53:49.148Z,26.20
2019-04-05T00:54:51.683Z,26.40
2019-04-05T00:55:53.813Z,25.40
2019-04-05T00:56:56.177Z,27.00
2019-04-05T00:57:58.184Z,28.00
2019-04-05T00:59:00.603Z,25.20
2019-04-05T01:00:05.062Z,27.20
2019-04-05T01:01:07.416Z,26.60
2019-04-05T01:02:09.447Z,25.40
2019-04-05T01:03:13.155Z,27.00
2019-04-05T01:04:15.848Z,26.60
2019-04-05T01:05:18.523Z,25.60
2019-04-05T01:06:21.272Z,25.20
2019-04-05T01:07:23.614Z,26.20
2019-04-05T01:08:25.977Z,27.20
2019-04-05T01:09:27.755Z,25.20
2019-04-05T01:10:30.255Z,25.00
2019-04-05T01:11:32.453Z,26.40
2019-04-05T01:12:35.880Z,26.00
2019-04-05T01:13:37.671Z,26.00
2019-04-05T01:14:40.186Z,25.80
2019-04-05T01:15:42.201Z,25.60
2019-04-05T01:16:44.490Z,27.60
2019-04-05T01:17:46.979Z,25.80
2019-04-05T01:18:48.792Z,27.00
2019-04-05T01:19:53.882Z,26.80
2019-04-05T01:21:01.462Z,27.60
2019-04-05T01:22:04.832Z,25.40
2019-04-05T01:23:09.216Z,25.00
2019-04-05T01:24:12.532Z,27.20
2019-04-05T01:25:15.537Z,25.60
2019-04-05T01:26:23.205Z,25.00
2019-04-05T01:27:26.289Z,26.40
2019-04-05T01:28:28.681Z,25.80
2019-04-05T01:29:30.945Z,25.40
2019-04-05T01:30:33.403Z,25.00
2019-04-05T01:31:35.611Z,27.80
2019-04-05T01:32:37.851Z,24.60
2019-04-05T01:33:40.033Z,27.20
2019-04-05T01:34:42.337Z,25.20
2019-04-05T01:35:44.741Z,24.60
2019-04-05T01:36:47.029Z,24.80
2019-04-05T01:37:49.743Z,27.60
2019-04-05T01:38:51.695Z,27.00
2019-04-05T01:39:53.609Z,25.20
2019-04-05T01:40:56.763Z,27.60
2019-04-05T01:41:59.292Z,24.20
2019-04-05T01:43:01.371Z,24.60
2019-04-05T01:44:03.609Z,27.00
2019-04-05T01:45:07.361Z,27.00
2019-04-05T01:46:09.411Z,24.40
2019-04-05T01:47:12.313Z,25.80
2019-04-05T01:48:14.091Z,25.20
2019-04-05T01:49:16.523Z,26.80
2019-04-05T01:50:19.202Z,25.20
2019-04-05T01:51:21.824Z,25.00
2019-04-05T01:52:24.013Z,26.20
2019-04-05T01:53:26.270Z,27.00
2019-04-05T01:54:29.216Z,24.80
2019-04-05T01:55:31.716Z,26.80
2019-04-05T01:56:34.234Z,25.60
2019-04-05T01:57:37.006Z,26.80
2019-04-05T01:58:38.783Z,25.00
2019-04-05T01:59:42.232Z,25.20
2019-04-05T02:00:44.600Z,25.20
2019-04-05T02:01:47.163Z,26.00
2019-04-05T02:02:49.382Z,26.60
2019-04-05T02:03:51.082Z,25.20
2019-04-05T02:04:53.727Z,24.60
2019-04-05T02:05:55.822Z,25.20
2019-04-05T02:06:58.434Z,26.40
2019-04-05T02:08:00.671Z,25.40
2019-04-05T02:09:08.478Z,26.00
2019-04-05T02:10:11.161Z,26.20
2019-04-05T02:11:13.506Z,25.00
2019-04-05T02:12:16.995Z,26.40
2019-04-05T02:13:18.932Z,26.60
2019-04-05T02:14:21.715Z,26.00
2019-04-05T02:15:29.574Z,26.20
2019-04-05T02:16:31.775Z,27.40
2019-04-05T02:17:35.933Z,25.00
2019-04-05T02:18:38.016Z,25.20
2019-04-05T02:19:40.333Z,26.20
2019-04-05T02:20:42.458Z,24.60
2019-04-05T02:21:44.350Z,25.60
2019-04-05T02:22:46.793Z,24.80
2019-04-05T02:23:50.552Z,26.40
2019-04-05T02:24:53.095Z,24.60
2019-04-05T02:25:55.315Z,25.60
2019-04-05T02:26:57.757Z,26.80
2019-04-05T02:28:01.523Z,24.80
2019-04-05T02:29:04.233Z,26.20
2019-04-05T02:30:08.263Z,25.60
2019-04-05T02:31:10.301Z,25.60
2019-04-05T02:32:12.605Z,26.40
2019-04-05T02:33:15.270Z,23.60
2019-04-05T02:34:17.184Z,26.80
2019-04-05T02:35:20.011Z,25.00
2019-04-05T02:36:22.407Z,25.40
2019-04-05T02:37:24.999Z,26.20
2019-04-05T02:38:27.485Z,26.40
2019-04-05T02:39:29.656Z,26.00
2019-04-05T02:40:34.864Z,26.60
2019-04-05T02:41:38.918Z,27.80
2019-04-05T02:42:43.316Z,25.60
2019-04-05T02:43:46.579Z,26.20
2019-04-05T02:44:51.092Z,26.80
2019-04-05T02:45:54.490Z,25.60
2019-04-05T02:46:56.601Z,27.00
2019-04-05T02:48:03.636Z,25.60
2019-04-05T02:49:06.021Z,27.40
2019-04-05T02:50:09.072Z,23.80
2019-04-05T02:51:15.001Z,25.40
2019-04-05T02:52:19.223Z,25.40
2019-04-05T02:53:22.562Z,25.00
2019-04-05T02:54:25.288Z,27.00
2019-04-05T02:55:29.945Z,26.00
2019-04-05T02:56:33.037Z,25.40
2019-04-05T02:57:35.779Z,25.40
2019-04-05T02:58:39.830Z,25.20
2019-04-05T02:59:43.124Z,27.40
2019-04-05T03:00:45.606Z,26.60
2019-04-05T03:01:48.850Z,26.80
2019-04-05T03:02:52.155Z,25.20
2019-04-05T03:03:54.823Z,24.80
2019-04-05T03:04:57.186Z,27.00
2019-04-05T03:05:59.478Z,30.80
2019-04-05T03:07:02.328Z,25.40
2019-04-05T03:08:05.469Z,25.00
2019-04-05T03:09:08.841Z,25.20
2019-04-05T03:10:45.594Z,25.40
2019-04-05T03:11:48.453Z,25.40
2019-04-05T03:12:50.458Z,26.80
2019-04-05T03:13:56.646Z,25.60
2019-04-05T03:15:01.850Z,27.40
2019-04-05T03:16:09.743Z,26.00
2019-04-05T03:17:12.619Z,24.80
2019-04-05T03:18:15.377Z,25.20
2019-04-05T03:19:22.340Z,25.20
2019-04-05T03:20:24.894Z,25.00
2019-04-05T03:21:28.330Z,25.00
2019-04-05T03:22:33.982Z,26.40
2019-04-05T03:23:41.414Z,27.00
2019-04-05T03:24:44.904Z,25.00
2019-04-05T03:25:48.450Z,25.40
2019-04-05T03:26:55.819Z,25.80
2019-04-05T03:28:01.076Z,25.00
2019-04-05T03:29:07.319Z,25.00
2019-04-05T03:30:09.751Z,26.20
2019-04-05T03:31:12.742Z,27.00
2019-04-05T03:32:16.070Z,26.80
2019-04-05T03:33:18.738Z,25.40
2019-04-05T03:34:21.483Z,26.80
2019-04-05T03:35:24.720Z,26.20
2019-04-05T03:36:27.107Z,27.00
2019-04-05T03:37:28.958Z,27.40
2019-04-05T03:38:31.519Z,25.60
2019-04-05T03:39:33.994Z,25.20
2019-04-05T03:40:37.403Z,25.60
2019-04-05T03:41:40.245Z,25.20
2019-04-05T03:42:42.622Z,26.00
2019-04-05T03:43:45.108Z,27.60
2019-04-05T03:44:47.612Z,25.40
2019-04-05T03:45:49.780Z,26.00
2019-04-05T03:46:56.791Z,25.00
2019-04-05T03:47:57.620Z,28.00
2019-04-05T03:48:59.666Z,26.40
2019-04-05T03:50:05.922Z,28.00
2019-04-05T03:51:08.018Z,28.60
2019-04-05T03:52:10.524Z,28.40
2019-04-05T03:53:14.019Z,28.20
2019-04-05T03:54:16.266Z,25.60
2019-04-05T03:55:18.391Z,27.60
2019-04-05T03:56:20.899Z,26.20
2019-04-05T03:57:24.007Z,26.60
2019-04-05T03:58:27.106Z,26.20
2019-04-05T03:59:29.467Z,25.40
2019-04-05T04:00:32.404Z,27.00
2019-04-05T04:01:35.050Z,27.80
2019-04-05T04:02:37.243Z,25.80
2019-04-05T04:03:39.312Z,25.00
2019-04-05T04:04:42.436Z,26.60
2019-04-05T04:05:44.718Z,27.00
2019-04-05T04:06:46.650Z,24.60
2019-04-05T04:07:49.034Z,27.00
2019-04-05T04:08:51.447Z,25.40
2019-04-05T04:09:53.536Z,25.60
2019-04-05T04:10:55.892Z,25.40
2019-04-05T04:11:58.669Z,27.00
2019-04-05T04:13:00.964Z,26.80
2019-04-05T04:14:04.177Z,26.20
2019-04-05T04:15:14.229Z,26.40
2019-04-05T04:16:17.798Z,28.00
2019-04-05T04:17:20.573Z,25.20
2019-04-05T04:18:22.925Z,25.80
2019-04-05T04:19:25.846Z,25.80
2019-04-05T04:20:42.939Z,25.00
2019-04-05T04:21:59.416Z,27.20
2019-04-05T04:23:02.676Z,26.80
2019-04-05T04:24:06.140Z,26.60
2019-04-05T04:25:08.303Z,27.40
2019-04-05T04:26:11.147Z,25.40
2019-04-05T04:27:14.538Z,26.80
2019-04-05T04:28:16.828Z,25.20
2019-04-05T04:29:19.719Z,24.40
2019-04-05T04:30:22.142Z,25.20
2019-04-05T04:31:24.481Z,25.20
2019-04-05T04:32:28.801Z,27.80
2019-04-05T04:33:31.583Z,25.80
2019-04-05T04:34:34.102Z,25.00
2019-04-05T04:35:36.941Z,25.00
2019-04-05T04:36:39.273Z,24.20
2019-04-05T04:37:41.136Z,27.20
2019-04-05T04:38:44.268Z,25.40
2019-04-05T04:39:47.122Z,26.20
2019-04-05T04:40:49.408Z,25.40
2019-04-05T04:41:51.919Z,24.40
2019-04-05T04:42:54.649Z,25.40
2019-04-05T04:43:57.733Z,25.60
2019-04-05T04:45:11.811Z,26.00
2019-04-05T04:46:06.385Z,25.60
2019-04-05T04:47:10.003Z,27.60
2019-04-05T04:48:12.491Z,27.00
2019-04-05T04:49:15.098Z,25.00
2019-04-05T04:50:18.127Z,26.40
2019-04-05T04:51:20.350Z,24.80
2019-04-05T04:52:22.764Z,26.40
2019-04-05T04:53:25.471Z,26.80
2019-04-05T04:54:28.526Z,25.00
2019-04-05T04:55:31.106Z,26.80
2019-04-05T04:56:34.636Z,23.80
2019-04-05T04:57:37.527Z,26.60
2019-04-05T04:58:39.922Z,25.40
2019-04-05T04:59:42.681Z,27.20
2019-04-05T05:00:44.579Z,27.00
2019-04-05T05:01:47.578Z,26.00
2019-04-05T05:02:50.020Z,28.40
2019-04-05T05:03:53.456Z,27.00
2019-04-05T05:04:55.820Z,28.60
2019-04-05T05:05:58.236Z,28.20
2019-04-05T05:07:00.162Z,25.00
2019-04-05T05:08:02.951Z,26.60
2019-04-05T05:09:06.450Z,26.40
2019-04-05T05:10:09.013Z,28.20
2019-04-05T05:11:14.884Z,25.20
2019-04-05T05:12:15.700Z,26.60
2019-04-05T05:13:18.029Z,25.00
2019-04-05T05:14:20.819Z,23.80
2019-04-05T05:15:23.546Z,25.00
2019-04-05T05:16:26.048Z,26.40
2019-04-05T05:17:37.955Z,25.60
2019-04-05T05:18:33.003Z,26.40
2019-04-05T05:19:35.321Z,24.00
2019-04-05T05:20:37.644Z,25.20
2019-04-05T05:21:39.721Z,23.80
2019-04-05T05:22:42.382Z,25.00
2019-04-05T05:23:44.673Z,26.80
2019-04-05T05:24:47.138Z,23.40
2019-04-05T05:25:50.246Z,26.20
2019-04-05T05:26:53.211Z,25.00
2019-04-05T05:27:55.464Z,25.60
2019-04-05T05:28:57.772Z,25.00
2019-04-05T05:30:00.702Z,24.60
2019-04-05T05:31:03.703Z,25.60
2019-04-05T05:32:09.496Z,26.00
2019-04-05T05:33:10.789Z,26.40
2019-04-05T05:34:13.776Z,25.00
2019-04-05T05:35:15.935Z,25.40
2019-04-05T05:36:18.901Z,24.80
2019-04-05T05:37:21.199Z,24.40
2019-04-05T05:38:23.456Z,24.60
2019-04-05T05:39:25.859Z,24.20
2019-04-05T05:40:34.743Z,24.80
2019-04-05T05:41:31.951Z,24.80
2019-04-05T05:42:34.600Z,22.60
2019-04-05T05:43:36.885Z,24.40
2019-04-05T05:44:39.052Z,25.40
2019-04-05T05:45:41.432Z,24.00
2019-04-05T05:46:44.799Z,23.80
2019-04-05T05:47:52.051Z,23.20
2019-04-05T05:48:51.035Z,23.80
2019-04-05T05:49:53.460Z,23.60
2019-04-05T05:50:56.246Z,25.20
2019-04-05T05:51:59.452Z,24.00
2019-04-05T05:53:02.036Z,23.80
2019-04-05T05:54:04.490Z,23.60
2019-04-05T05:55:07.586Z,21.40
2019-04-05T05:56:09.767Z,24.80
2019-04-05T05:57:12.354Z,23.60
2019-04-05T05:58:14.317Z,24.00
2019-04-05T05:59:16.756Z,23.00
2019-04-05T06:00:21.266Z,23.60
2019-04-05T06:01:23.969Z,25.00
2019-04-05T06:02:26.548Z,24.60
2019-04-05T06:03:28.825Z,24.40
2019-04-05T06:04:31.170Z,23.20
2019-04-05T06:05:33.847Z,23.60
2019-04-05T06:06:36.417Z,24.60
2019-04-05T06:07:38.543Z,24.40
2019-04-05T06:08:41.086Z,24.00
2019-04-05T06:09:47.610Z,23.60
2019-04-05T06:10:48.784Z,22.80
2019-04-05T06:11:51.270Z,27.00
2019-04-05T06:12:53.369Z,25.40
2019-04-05T06:13:55.777Z,23.00
2019-04-05T06:14:58.303Z,24.40
2019-04-05T06:16:00.355Z,22.60
2019-04-05T06:17:02.837Z,24.00
2019-04-05T06:18:05.308Z,24.40
2019-04-05T06:19:07.744Z,24.40
2019-04-05T06:20:11.923Z,25.60
2019-04-05T06:21:13.959Z,23.80
2019-04-05T06:22:15.940Z,24.60
2019-04-05T06:23:17.927Z,26.80
2019-04-05T06:24:20.209Z,27.60
2019-04-05T06:25:22.791Z,26.60
2019-04-05T06:26:25.312Z,24.00
2019-04-05T06:27:28.538Z,26.40
2019-04-05T06:28:30.912Z,25.60
2019-04-05T06:29:33.611Z,25.80
2019-04-05T06:30:36.082Z,26.20
2019-04-05T06:31:38.445Z,23.20
2019-04-05T06:32:40.721Z,23.20
2019-04-05T06:33:42.858Z,23.40
2019-04-05T06:34:44.932Z,23.00
2019-04-05T06:35:47.413Z,26.60
2019-04-05T06:36:51.273Z,22.00
2019-04-05T06:37:53.496Z,22.00
2019-04-05T06:38:55.689Z,21.80
2019-04-05T06:39:57.479Z,21.20
2019-04-05T06:40:59.882Z,23.80
2019-04-05T06:42:01.975Z,20.40
2019-04-05T06:43:06.669Z,23.40
2019-04-05T06:44:08.489Z,24.00
2019-04-05T06:45:12.073Z,21.80
2019-04-05T06:46:14.410Z,24.00
2019-04-05T06:47:16.633Z,23.40
2019-04-05T06:48:20.045Z,23.20
2019-04-05T06:49:22.439Z,22.00
2019-04-05T06:50:25.118Z,20.60
2019-04-05T06:51:27.066Z,22.20
2019-04-05T06:52:28.740Z,23.80
2019-04-05T06:53:30.879Z,21.60
2019-04-05T06:54:32.719Z,23.00
2019-04-05T06:55:34.931Z,23.60
2019-04-05T06:56:37.167Z,21.00
2019-04-05T06:57:40.764Z,20.80
2019-04-05T06:58:46.132Z,25.40
2019-04-05T06:59:50.024Z,22.40
2019-04-05T07:00:57.207Z,20.80
2019-04-05T07:01:56.502Z,20.40
2019-04-05T07:03:00.115Z,24.20
2019-04-05T07:04:03.149Z,22.40
2019-04-05T07:05:06.154Z,19.80
2019-04-05T07:06:08.490Z,23.80
2019-04-05T07:07:11.120Z,23.00
2019-04-05T07:08:13.799Z,20.00
2019-04-05T07:09:17.488Z,24.00
2019-04-05T07:10:19.378Z,26.40
2019-04-05T07:11:21.940Z,21.80
2019-04-05T07:12:24.912Z,21.80
2019-04-05T07:13:27.719Z,20.80
2019-04-05T07:14:29.985Z,22.00
2019-04-05T07:15:32.559Z,22.80
2019-04-05T07:16:35.531Z,24.00
2019-04-05T07:17:38.098Z,20.80
2019-04-05T07:18:40.183Z,22.20
2019-04-05T07:19:42.380Z,23.40
2019-04-05T07:20:44.668Z,24.00
2019-04-05T07:21:47.420Z,21.60
2019-04-05T07:22:49.909Z,24.00
2019-04-05T07:23:52.345Z,19.00
2019-04-05T07:24:54.723Z,21.00
2019-04-05T07:25:56.788Z,22.80
2019-04-05T07:26:59.065Z,22.00
2019-04-05T07:28:02.134Z,22.60
2019-04-05T07:29:04.744Z,23.80
2019-04-05T07:30:08.913Z,22.60
2019-04-05T07:31:11.257Z,22.00
2019-04-05T07:32:13.647Z,22.40
2019-04-05T07:33:16.092Z,21.20
2019-04-05T07:34:18.282Z,21.60
2019-04-05T07:35:32.393Z,24.00
2019-04-05T07:36:24.205Z,22.00
2019-04-05T07:37:26.768Z,23.00
2019-04-05T07:38:29.389Z,21.40
2019-04-05T07:39:31.816Z,23.40
2019-04-05T07:40:34.048Z,20.40
2019-04-05T07:41:36.603Z,20.20
2019-04-05T07:42:38.552Z,23.00
2019-04-05T07:43:40.546Z,22.00
2019-04-05T07:44:42.860Z,23.00
2019-04-05T07:45:46.099Z,23.80
2019-04-05T07:46:48.582Z,20.20
2019-04-05T07:47:51.081Z,19.60
2019-04-05T07:48:53.131Z,19.80
2019-04-05T07:49:55.561Z,22.40
2019-04-05T07:50:57.800Z,22.20
2019-04-05T07:52:00.728Z,19.20
2019-04-05T07:53:03.211Z,22.00
2019-04-05T07:54:05.498Z,20.00
2019-04-05T07:55:08.388Z,22.60
2019-04-05T07:56:10.572Z,22.00
2019-04-05T07:57:13.138Z,19.80
2019-04-05T07:58:15.014Z,21.00
2019-04-05T07:59:17.166Z,22.20
2019-04-05T08:00:51.832Z,21.20
2019-04-05T08:01:53.938Z,22.00
2019-04-05T08:02:56.425Z,21.80
2019-04-05T08:03:58.331Z,21.40
2019-04-05T08:05:00.670Z,20.00
2019-04-05T08:06:03.817Z,20.00
2019-04-05T08:07:06.011Z,21.20
2019-04-05T08:08:15.091Z,23.00
2019-04-05T08:09:18.002Z,22.20
2019-04-05T08:10:22.207Z,18.20
2019-04-05T08:11:26.638Z,21.40
2019-04-05T08:12:28.815Z,22.60
2019-04-05T08:13:34.716Z,23.20
2019-04-05T08:14:38.237Z,22.00
2019-04-05T08:15:41.247Z,23.00
2019-04-05T08:16:43.481Z,23.80
2019-04-05T08:17:46.023Z,19.40
2019-04-05T08:18:57.692Z,21.40
2019-04-05T08:19:54.186Z,21.20
2019-04-05T08:20:56.270Z,22.00
2019-04-05T08:21:58.076Z,21.00
2019-04-05T08:23:00.246Z,18.80
2019-04-05T08:24:03.163Z,19.60
2019-04-05T08:25:05.457Z,22.20
2019-04-05T08:26:07.830Z,16.80
2019-04-05T08:27:09.913Z,21.20
2019-04-05T08:28:11.733Z,23.60
2019-04-05T08:29:14.247Z,21.60
2019-04-05T08:30:16.887Z,22.00
2019-04-05T08:31:22.846Z,19.40
2019-04-05T08:32:25.173Z,19.20
2019-04-05T08:33:27.241Z,17.40
2019-04-05T08:34:32.522Z,19.60
2019-04-05T08:35:34.919Z,19.40
2019-04-05T08:36:37.093Z,22.00
2019-04-05T08:37:40.882Z,20.80
2019-04-05T08:38:43.943Z,18.60
2019-04-05T08:39:45.724Z,20.20
2019-04-05T08:40:47.983Z,19.60
2019-04-05T08:41:50.309Z,19.60
2019-04-05T08:42:52.322Z,21.20
2019-04-05T08:43:54.910Z,18.60
2019-04-05T08:44:57.236Z,20.60
2019-04-05T08:45:58.903Z,19.60
2019-04-05T08:47:01.335Z,19.00
2019-04-05T08:48:04.361Z,18.40
2019-04-05T08:49:10.968Z,18.60
2019-04-05T08:50:11.075Z,18.60
2019-04-05T08:51:13.272Z,21.60
2019-04-05T08:52:15.494Z,20.00
2019-04-05T08:53:17.766Z,22.80
2019-04-05T08:54:31.835Z,18.20
2019-04-05T08:55:23.841Z,18.60
2019-04-05T08:56:26.194Z,18.00
2019-04-05T08:57:28.241Z,18.80
2019-04-05T08:58:33.593Z,17.80
2019-04-05T08:59:35.334Z,16.00
2019-04-05T09:00:37.604Z,16.20
2019-04-05T09:01:40.221Z,16.60
2019-04-05T09:02:42.473Z,17.60
2019-04-05T09:03:44.367Z,17.20
2019-04-05T09:04:46.782Z,18.00
2019-04-05T09:05:48.876Z,18.20
2019-04-05T09:06:51.132Z,17.20
2019-04-05T09:07:53.716Z,16.60
2019-04-05T09:08:55.963Z,18.00
2019-04-05T09:09:58.499Z,15.60
2019-04-05T09:11:00.883Z,17.40
2019-04-05T09:12:03.256Z,17.80
2019-04-05T09:13:05.710Z,16.00
2019-04-05T09:14:08.539Z,17.40
2019-04-05T09:15:11.594Z,17.60
2019-04-05T09:16:14.994Z,17.20
2019-04-05T09:17:18.290Z,19.00
2019-04-05T09:18:20.291Z,19.40
2019-04-05T09:19:24.098Z,15.80
2019-04-05T09:20:26.335Z,18.40
2019-04-05T09:21:28.965Z,20.20
2019-04-05T09:22:30.862Z,16.20
2019-04-05T09:23:33.065Z,17.60
2019-04-05T09:24:35.383Z,17.00
2019-04-05T09:25:37.995Z,17.20
2019-04-05T09:26:39.983Z,16.40
2019-04-05T09:27:42.446Z,16.00
2019-04-05T09:28:44.217Z,17.80
2019-04-05T09:29:46.555Z,16.20
2019-04-05T09:30:51.778Z,17.00
2019-04-05T09:31:53.659Z,17.20
2019-04-05T09:32:55.950Z,16.60
2019-04-05T09:33:58.008Z,18.80
2019-04-05T09:35:00.031Z,16.20
2019-04-05T09:36:02.591Z,17.20
2019-04-05T09:37:04.796Z,18.40
2019-04-05T09:38:07.041Z,17.00
2019-04-05T09:39:15.300Z,17.20
2019-04-05T09:40:14.823Z,17.40
2019-04-05T09:41:17.165Z,18.00
2019-04-05T09:42:19.058Z,17.00
2019-04-05T09:43:21.138Z,19.00
2019-04-05T09:44:25.449Z,18.60
2019-04-05T09:45:27.618Z,18.80
2019-04-05T09:46:30.056Z,19.00
2019-04-05T09:47:32.364Z,19.00
2019-04-05T09:48:34.591Z,18.60
2019-04-05T09:49:37.342Z,17.40
2019-04-05T09:50:39.840Z,18.20
2019-04-05T09:51:41.996Z,19.00
2019-04-05T09:52:44.445Z,17.80
2019-04-05T09:53:46.638Z,19.00
2019-04-05T09:54:48.688Z,19.00
2019-04-05T09:55:52.108Z,17.80
2019-04-05T09:56:56.774Z,18.20
2019-04-05T09:57:58.378Z,19.60
2019-04-05T09:59:00.701Z,18.60
2019-04-05T10:00:12.146Z,19.00
2019-04-05T10:01:14.717Z,20.00
2019-04-05T10:02:17.324Z,21.00
2019-04-05T10:03:19.690Z,20.80
2019-04-05T10:04:21.512Z,20.00
2019-04-05T10:05:24.562Z,19.60
2019-04-05T10:06:26.713Z,22.80
2019-04-05T10:07:28.507Z,19.80
2019-04-05T10:08:30.920Z,19.40
2019-04-05T10:09:32.590Z,17.80
2019-04-05T10:10:34.953Z,19.00
2019-04-05T10:11:37.182Z,20.20
2019-04-05T10:12:39.232Z,19.20
2019-04-05T10:13:41.516Z,19.80
2019-04-05T10:14:43.852Z,18.40
2019-04-05T10:15:45.563Z,19.60
2019-04-05T10:16:49.041Z,19.60
2019-04-05T10:17:51.258Z,18.80
2019-04-05T10:18:53.337Z,19.00
2019-04-05T10:19:55.701Z,19.00
2019-04-05T10:20:57.947Z,17.20
2019-04-05T10:21:59.669Z,19.40
2019-04-05T10:23:01.900Z,20.60
2019-04-05T10:24:04.493Z,22.00
2019-04-05T10:25:08.109Z,21.00
2019-04-05T10:26:10.410Z,20.80
2019-04-05T10:27:12.360Z,20.00
2019-04-05T10:28:14.286Z,19.20
2019-04-05T10:29:16.598Z,19.00
2019-04-05T10:30:19.604Z,19.00
2019-04-05T10:31:22.556Z,19.60
2019-04-05T10:32:24.638Z,21.40
2019-04-05T10:33:26.538Z,20.00
2019-04-05T10:34:28.475Z,19.00
2019-04-05T10:35:30.856Z,19.40
2019-04-05T10:36:33.371Z,19.00
2019-04-05T10:37:35.452Z,19.00
2019-04-05T10:38:38.709Z,19.40
2019-04-05T10:39:41.275Z,20.00
2019-04-05T10:40:43.497Z,18.80
2019-04-05T10:41:45.594Z,19.00
2019-04-05T10:42:47.740Z,18.00
2019-04-05T10:43:50.216Z,20.20
2019-04-05T10:44:52.435Z,20.00
2019-04-05T10:45:55.770Z,19.40
2019-04-05T10:46:58.265Z,19.20
2019-04-05T10:48:00.902Z,17.20
2019-04-05T10:49:02.900Z,17.60
2019-04-05T10:50:08.265Z,18.40
2019-04-05T10:51:10.645Z,19.00
2019-04-05T10:52:12.886Z,19.00
2019-04-05T10:53:15.180Z,18.60
2019-04-05T10:54:17.283Z,21.60
2019-04-05T10:55:19.686Z,19.00
2019-04-05T10:56:21.985Z,20.20
2019-04-05T10:57:24.500Z,18.80
2019-04-05T10:58:27.312Z,17.00
2019-04-05T10:59:29.431Z,18.80
2019-04-05T11:00:31.861Z,18.00
2019-04-05T11:01:34.337Z,18.80
2019-04-05T11:02:36.668Z,17.60
2019-04-05T11:03:38.378Z,18.20
2019-04-05T11:04:40.730Z,20.20
2019-04-05T11:05:44.543Z,19.00
2019-04-05T11:06:47.085Z,18.20
2019-04-05T11:07:49.281Z,19.40
2019-04-05T11:08:51.479Z,19.40
2019-04-05T11:09:53.771Z,18.20
2019-04-05T11:10:56.025Z,19.00
2019-04-05T11:11:58.290Z,19.00
2019-04-05T11:13:00.641Z,19.00
2019-04-05T11:14:13.240Z,19.00
2019-04-05T11:15:08.009Z,18.40
2019-04-05T11:16:11.723Z,21.40
2019-04-05T11:17:14.253Z,20.80
2019-04-05T11:18:16.544Z,21.00
2019-04-05T11:19:20.580Z,21.00
2019-04-05T11:20:23.003Z,19.00
2019-04-05T11:21:25.131Z,20.20
2019-04-05T11:22:27.240Z,20.20
2019-04-05T11:23:29.706Z,21.00
2019-04-05T11:24:31.451Z,19.80
2019-04-05T11:25:33.302Z,20.80
2019-04-05T11:26:35.468Z,18.80
2019-04-05T11:27:37.781Z,21.40
2019-04-05T11:28:39.546Z,19.20
2019-04-05T11:29:42.054Z,21.20
2019-04-05T11:30:45.645Z,19.40
2019-04-05T11:31:56.858Z,20.40
2019-04-05T11:32:52.420Z,20.80
2019-04-05T11:33:54.757Z,19.40
2019-04-05T11:34:57.328Z,21.00
2019-04-05T11:35:59.861Z,20.80
2019-04-05T11:37:02.931Z,21.00
2019-04-05T11:38:06.659Z,19.80
2019-04-05T11:39:09.184Z,21.80
2019-04-05T11:40:11.859Z,19.60
2019-04-05T11:41:14.753Z,21.40
2019-04-05T11:42:19.342Z,21.20
2019-04-05T11:43:26.213Z,19.00
2019-04-05T11:44:28.082Z,21.00
2019-04-05T11:45:33.384Z,21.00
2019-04-05T11:46:37.499Z,20.60
2019-04-05T11:47:40.164Z,21.00
2019-04-05T11:48:43.108Z,20.80
2019-04-05T11:49:46.915Z,20.00
2019-04-05T11:50:49.089Z,21.00
2019-04-05T11:51:51.716Z,19.20
2019-04-05T11:52:54.154Z,19.00
2019-04-05T11:53:57.368Z,19.00
2019-04-05T11:54:59.372Z,19.00
2019-04-05T11:56:13.911Z,20.40
2019-04-05T11:57:05.726Z,21.00
2019-04-05T11:58:07.503Z,21.80
2019-04-05T11:59:13.383Z,20.80
2019-04-05T12:00:20.455Z,20.40
2019-04-05T12:01:24.811Z,19.00
2019-04-05T12:02:29.143Z,21.00
2019-04-05T12:03:32.815Z,20.40
2019-04-05T12:04:35.264Z,21.40
2019-04-05T12:05:37.417Z,19.40
2019-04-05T12:06:39.708Z,21.00
2019-04-05T12:07:41.848Z,20.60
2019-04-05T12:08:44.600Z,20.40
2019-04-05T12:09:48.051Z,20.20
2019-04-05T12:10:51.069Z,20.40
2019-04-05T12:11:54.412Z,20.40
2019-04-05T12:12:56.503Z,20.20
2019-04-05T12:13:58.905Z,19.60
2019-04-05T12:15:01.155Z,19.60
2019-04-05T12:16:06.160Z,19.00
2019-04-05T12:17:09.732Z,19.00
2019-04-05T12:18:12.167Z,19.00
2019-04-05T12:19:14.923Z,19.20
2019-04-05T12:20:18.043Z,19.00
2019-04-05T12:21:21.054Z,19.40
2019-04-05T12:22:23.741Z,20.40
2019-04-05T12:23:25.843Z,19.40
2019-04-05T12:24:28.450Z,21.00
2019-04-05T12:25:33.437Z,19.20
2019-04-05T12:26:35.215Z,20.40
2019-04-05T12:27:37.259Z,19.80
2019-04-05T12:28:39.247Z,20.00
2019-04-05T12:29:43.186Z,19.20
2019-04-05T12:30:46.846Z,20.40
2019-04-05T12:31:49.206Z,19.20
2019-04-05T12:32:51.828Z,19.80
2019-04-05T12:33:53.537Z,20.60
2019-04-05T12:34:55.689Z,20.20
2019-04-05T12:35:58.205Z,19.80
2019-04-05T12:37:00.515Z,19.00
2019-04-05T12:38:03.204Z,19.00
2019-04-05T12:39:08.163Z,18.60
2019-04-05T12:40:11.259Z,19.00
2019-04-05T12:41:14.076Z,21.00
2019-04-05T12:42:16.237Z,21.00
2019-04-05T12:43:18.675Z,23.00
2019-04-05T12:44:20.805Z,20.00
2019-04-05T12:45:25.770Z,19.20
2019-04-05T12:46:29.194Z,20.20
2019-04-05T12:47:33.973Z,19.40
2019-04-05T12:48:36.091Z,19.20
2019-04-05T12:49:38.506Z,18.60
2019-04-05T12:50:44.494Z,19.00
2019-04-05T12:51:45.567Z,19.60
2019-04-05T12:52:48.215Z,18.80
2019-04-05T12:53:50.338Z,19.00
2019-04-05T12:54:54.855Z,19.20
2019-04-05T12:55:57.131Z,18.80
2019-04-05T12:56:59.712Z,19.80
2019-04-05T12:58:01.660Z,19.00
2019-04-05T12:59:04.221Z,19.00
2019-04-05T13:00:13.300Z,19.60
2019-04-05T13:01:16.055Z,20.20
2019-04-05T13:02:23.589Z,19.00
2019-04-05T13:03:22.072Z,18.40
2019-04-05T13:04:24.365Z,19.00
2019-04-05T13:05:26.570Z,18.60
2019-04-05T13:06:28.876Z,19.00
2019-04-05T13:07:31.417Z,19.00
2019-04-05T13:08:33.685Z,19.80
2019-04-05T13:09:35.505Z,19.00
2019-04-05T13:10:37.891Z,18.20
2019-04-05T13:11:41.914Z,18.60
2019-04-05T13:12:43.984Z,19.00
2019-04-05T13:13:46.135Z,19.80
2019-04-05T13:14:48.325Z,18.60
2019-04-05T13:15:50.305Z,19.40
2019-04-05T13:16:52.607Z,19.40
2019-04-05T13:17:54.697Z,19.20
2019-04-05T13:19:00.452Z,19.00
2019-04-05T13:20:03.273Z,19.00
2019-04-05T13:21:14.423Z,19.00
2019-04-05T13:22:09.131Z,19.80
2019-04-05T13:23:11.375Z,19.00
2019-04-05T13:24:13.985Z,19.00
2019-04-05T13:25:16.471Z,18.80
2019-04-05T13:26:18.921Z,18.20
2019-04-05T13:27:20.965Z,18.80
2019-04-05T13:28:22.980Z,19.00
2019-04-05T13:29:25.287Z,18.40
2019-04-05T13:30:27.927Z,18.60